createdAt,value
2018-09-21T00:01:40.751Z,58.80
2018-09-21T00:04:11.276Z,58.90
2018-09-21T00:06:39.716Z,59.00
2018-09-21T00:09:08.772Z,59.10
2018-09-21T00:11:36.902Z,59.10
2018-09-21T00:14:05.066Z,59.30
2018-09-21T00:16:33.215Z,59.10
2018-09-21T00:19:01.666Z,59.20
2018-09-21T00:21:29.803Z,59.20
2018-09-21T00:23:58.043Z,59.80
2018-09-21T00:26:26.165Z,59.30
2018-09-21T00:28:54.423Z,59.40
2018-09-21T00:31:22.576Z,59.40
2018-09-21T00:33:50.714Z,59.40
2018-09-21T00:36:18.884Z,59.70
2018-09-21T00:38:47.035Z,59.70
2018-09-21T00:41:15.183Z,60.00
2018-09-21T00:43:43.347Z,60.10
2018-09-21T00:46:11.496Z,60.20
2018-09-21T00:48:39.618Z,60.30
2018-09-21T00:51:07.756Z,60.60
2018-09-21T00:53:35.917Z,60.90
2018-09-21T00:56:04.055Z,61.10
2018-09-21T00:58:32.211Z,61.30
2018-09-21T01:01:00.362Z,61.50
2018-09-21T01:03:28.506Z,61.60
2018-09-21T01:05:56.623Z,62.00
2018-09-21T01:08:24.775Z,62.20
2018-09-21T01:10:52.898Z,62.10
2018-09-21T01:13:21.067Z,62.20
2018-09-21T01:15:49.353Z,62.30
2018-09-21T01:18:17.496Z,62.30
2018-09-21T01:20:45.714Z,61.80
2018-09-21T01:23:13.874Z,62.50
2018-09-21T01:25:42.042Z,62.80
2018-09-21T01:28:10.315Z,62.90
2018-09-21T01:30:38.438Z,62.50
2018-09-21T01:33:06.424Z,63.20
2018-09-21T01:35:34.546Z,63.20
2018-09-21T01:38:02.673Z,63.50
2018-09-21T01:40:30.793Z,63.60
2018-09-21T01:42:58.922Z,63.60
2018-09-21T01:45:27.198Z,63.80
2018-09-21T01:47:55.330Z,63.90
2018-09-21T01:50:23.575Z,64.20
2018-09-21T01:52:51.683Z,64.40
2018-09-21T01:55:19.798Z,64.50
2018-09-21T01:57:47.947Z,64.70
2018-09-21T02:00:16.071Z,64.70
2018-09-21T02:02:44.198Z,64.90
2018-09-21T02:05:12.346Z,65.20
2018-09-21T02:07:40.450Z,65.10
2018-09-21T02:10:08.575Z,65.00
2018-09-21T02:12:36.699Z,65.20
2018-09-21T02:15:04.826Z,65.30
2018-09-21T02:17:32.982Z,65.20
2018-09-21T02:20:01.086Z,65.30
2018-09-21T02:22:29.189Z,65.20
2018-09-21T02:24:57.319Z,65.20
2018-09-21T02:27:25.453Z,65.20
2018-09-21T02:29:53.567Z,65.20
2018-09-21T02:32:21.794Z,65.10
2018-09-21T02:34:49.917Z,65.30
2018-09-21T02:37:18.046Z,65.30
2018-09-21T02:39:46.190Z,65.20
2018-09-21T02:42:14.298Z,65.20
2018-09-21T02:44:42.407Z,65.40
2018-09-21T02:47:10.547Z,65.50
2018-09-21T02:49:38.669Z,65.60
2018-09-21T02:52:06.790Z,65.80
2018-09-21T02:54:34.939Z,66.00
2018-09-21T02:57:03.047Z,66.00
2018-09-21T02:59:31.178Z,66.00
2018-09-21T03:01:59.321Z,66.70
2018-09-21T03:04:27.558Z,66.00
2018-09-21T03:06:55.734Z,66.20
2018-09-21T03:09:23.837Z,66.30
2018-09-21T03:11:51.935Z,67.10
2018-09-21T03:14:20.046Z,66.50
2018-09-21T03:16:48.148Z,66.60
2018-09-21T03:19:16.254Z,66.50
2018-09-21T03:21:44.350Z,66.50
2018-09-21T03:24:12.450Z,66.70
2018-09-21T03:26:40.570Z,66.50
2018-09-21T03:29:08.674Z,66.50
2018-09-21T03:31:36.842Z,66.30
2018-09-21T03:34:04.978Z,66.90
2018-09-21T03:36:33.078Z,66.20
2018-09-21T03:39:01.195Z,66.30
2018-09-21T03:41:29.309Z,66.30
2018-09-21T03:43:57.406Z,66.20
2018-09-21T03:46:25.505Z,66.00
2018-09-21T03:48:53.637Z,65.80
2018-09-21T03:51:21.730Z,66.10
2018-09-21T03:53:49.903Z,66.20
2018-09-21T03:56:18.018Z,66.60
2018-09-21T03:58:46.121Z,66.00
2018-09-21T04:01:14.334Z,66.50
2018-09-21T04:03:42.359Z,66.80
2018-09-21T04:06:10.462Z,67.20
2018-09-21T04:08:38.551Z,67.10
2018-09-21T04:11:06.651Z,67.10
2018-09-21T04:13:34.765Z,67.20
2018-09-21T04:16:02.873Z,67.10
2018-09-21T04:18:30.974Z,66.80
2018-09-21T04:20:59.190Z,66.90
2018-09-21T04:23:27.304Z,66.80
2018-09-21T04:25:55.421Z,66.60
2018-09-21T04:28:23.514Z,66.40
2018-09-21T04:30:51.615Z,66.30
2018-09-21T04:33:19.769Z,66.10
2018-09-21T04:35:47.902Z,65.70
2018-09-21T04:38:16.006Z,65.30
2018-09-21T04:40:44.118Z,65.10
2018-09-21T04:43:12.246Z,65.40
2018-09-21T04:45:40.430Z,64.90
2018-09-21T04:48:08.491Z,64.70
2018-09-21T04:50:36.604Z,64.60
2018-09-21T04:53:04.722Z,64.60
2018-09-21T04:55:32.835Z,64.60
2018-09-21T04:58:00.926Z,64.30
2018-09-21T05:00:29.041Z,64.30
2018-09-21T05:02:57.210Z,63.90
2018-09-21T05:05:25.327Z,63.80
2018-09-21T05:07:53.499Z,63.70
2018-09-21T05:10:21.661Z,63.30
2018-09-21T05:12:49.774Z,63.10
2018-09-21T05:15:17.914Z,62.80
2018-09-21T05:17:46.012Z,62.40
2018-09-21T05:20:14.334Z,61.80
2018-09-21T05:22:42.450Z,61.30
2018-09-21T05:25:10.619Z,60.90
2018-09-21T05:27:38.837Z,60.60
2018-09-21T05:30:07.288Z,60.30
2018-09-21T05:32:35.477Z,59.90
2018-09-21T05:35:03.803Z,59.80
2018-09-21T05:37:31.918Z,59.70
2018-09-21T05:40:00.030Z,59.70
2018-09-21T05:42:28.146Z,59.60
2018-09-21T05:44:56.305Z,59.60
2018-09-21T05:47:24.519Z,59.60
2018-09-21T05:49:52.618Z,59.50
2018-09-21T05:52:20.732Z,59.50
2018-09-21T05:54:48.842Z,59.60
2018-09-21T05:57:16.945Z,59.50
2018-09-21T05:59:45.062Z,59.60
2018-09-21T06:02:13.226Z,59.70
2018-09-21T06:04:41.346Z,59.90
2018-09-21T06:07:09.471Z,60.10
2018-09-21T06:09:37.567Z,60.20
2018-09-21T06:12:05.842Z,60.20
2018-09-21T06:14:33.962Z,60.40
2018-09-21T06:17:02.083Z,60.60
2018-09-21T06:19:30.232Z,60.60
2018-09-21T06:21:58.299Z,61.00
2018-09-21T06:24:26.450Z,61.00
2018-09-21T06:26:54.575Z,61.00
2018-09-21T06:29:22.737Z,61.20
2018-09-21T06:31:50.879Z,61.10
2018-09-21T06:34:18.997Z,61.20
2018-09-21T06:36:47.114Z,61.00
2018-09-21T06:39:15.223Z,61.50
2018-09-21T06:41:43.366Z,61.50
2018-09-21T06:44:11.526Z,61.50
2018-09-21T06:46:39.637Z,62.10
2018-09-21T06:49:07.742Z,60.60
2018-09-21T06:51:35.858Z,59.80
2018-09-21T06:54:03.975Z,58.90
2018-09-21T06:56:32.097Z,58.00
2018-09-21T06:59:00.219Z,57.90
2018-09-21T07:01:28.405Z,57.40
2018-09-21T07:03:56.446Z,56.90
2018-09-21T07:06:24.564Z,56.00
2018-09-21T07:08:52.750Z,55.20
2018-09-21T07:11:20.985Z,55.30
2018-09-21T07:13:49.085Z,54.80
2018-09-21T07:16:17.194Z,54.60
2018-09-21T07:18:45.306Z,53.80
2018-09-21T07:21:13.418Z,54.10
2018-09-21T07:23:41.519Z,53.80
2018-09-21T07:26:09.654Z,53.70
2018-09-21T07:28:37.765Z,53.10
2018-09-21T07:31:05.912Z,52.80
2018-09-21T07:33:34.026Z,52.80
2018-09-21T07:36:02.129Z,52.40
2018-09-21T07:38:36.817Z,52.40
2018-09-21T07:41:04.958Z,52.50
2018-09-21T07:43:33.100Z,52.40
2018-09-21T07:46:01.211Z,52.50
2018-09-21T07:48:29.329Z,52.40
2018-09-21T07:50:57.491Z,52.10
2018-09-21T07:53:25.646Z,52.10
2018-09-21T07:55:53.749Z,52.90
2018-09-21T07:58:21.862Z,52.50
2018-09-21T08:00:49.971Z,52.50
2018-09-21T08:03:18.140Z,52.60
2018-09-21T08:05:46.242Z,52.70
2018-09-21T08:08:14.352Z,52.80
2018-09-21T08:10:42.439Z,52.70
2018-09-21T08:13:10.543Z,53.00
2018-09-21T08:15:38.649Z,53.00
2018-09-21T08:18:06.827Z,53.00
2018-09-21T08:20:34.977Z,53.00
2018-09-21T08:23:03.157Z,53.10
2018-09-21T08:25:31.257Z,53.10
2018-09-21T08:27:59.366Z,53.10
2018-09-21T08:30:27.474Z,53.70
2018-09-21T08:32:55.611Z,53.00
2018-09-21T08:35:23.707Z,53.00
2018-09-21T08:37:51.830Z,52.80
2018-09-21T08:40:19.944Z,52.60
2018-09-21T08:42:48.104Z,52.50
2018-09-21T08:45:16.191Z,52.10
2018-09-21T08:47:44.335Z,52.40
2018-09-21T08:50:12.446Z,52.40
2018-09-21T08:52:40.570Z,52.50
2018-09-21T08:55:08.662Z,52.60
2018-09-21T08:57:36.790Z,52.90
2018-09-21T09:00:05.014Z,53.00
2018-09-21T09:02:33.142Z,53.30
2018-09-21T09:05:01.290Z,53.90
2018-09-21T09:07:29.418Z,53.40
2018-09-21T09:09:57.526Z,53.50
2018-09-21T09:12:25.622Z,53.60
2018-09-21T09:14:53.773Z,53.70
2018-09-21T09:17:22.019Z,53.90
2018-09-21T09:19:50.154Z,55.10
2018-09-21T09:22:18.270Z,55.50
2018-09-21T09:24:46.382Z,56.30
2018-09-21T09:27:14.522Z,55.80
2018-09-21T09:29:42.640Z,55.50
2018-09-21T09:32:10.745Z,55.70
2018-09-21T09:34:39.002Z,56.00
2018-09-21T09:37:07.361Z,56.30
2018-09-21T09:39:35.506Z,56.90
2018-09-21T09:42:03.653Z,59.00
2018-09-21T09:44:31.812Z,62.40
2018-09-21T09:46:59.946Z,64.60
2018-09-21T09:49:28.075Z,67.40
2018-09-21T09:51:56.579Z,70.70
2018-09-21T09:54:24.702Z,73.80
2018-09-21T09:56:52.824Z,72.70
2018-09-21T09:59:20.966Z,74.70
2018-09-21T10:01:49.088Z,76.40
2018-09-21T10:04:17.222Z,77.30
2018-09-21T10:06:45.342Z,76.90
2018-09-21T10:09:13.456Z,76.50
2018-09-21T10:11:41.561Z,77.70
2018-09-21T10:14:09.876Z,77.10
2018-09-21T10:16:38.002Z,79.10
2018-09-21T10:19:06.481Z,80.10
2018-09-21T10:21:34.607Z,80.50
2018-09-21T10:24:02.753Z,81.30
2018-09-21T10:26:30.842Z,81.00
2018-09-21T10:28:59.082Z,80.20
2018-09-21T10:31:27.170Z,80.30
2018-09-21T10:33:55.307Z,79.80
2018-09-21T10:36:23.489Z,79.40
2018-09-21T10:38:51.618Z,78.60
2018-09-21T10:41:19.718Z,77.10
2018-09-21T10:43:47.862Z,77.70
2018-09-21T10:46:15.956Z,75.60
2018-09-21T10:48:44.096Z,75.20
2018-09-21T10:51:12.186Z,75.10
2018-09-21T10:53:40.292Z,72.40
2018-09-21T10:56:08.409Z,72.50
2018-09-21T10:58:36.572Z,72.90
2018-09-21T11:01:04.679Z,71.70
2018-09-21T11:03:32.781Z,71.30
2018-09-21T11:06:00.923Z,71.70
2018-09-21T11:08:29.062Z,71.30
2018-09-21T11:10:57.167Z,71.00
2018-09-21T11:13:25.295Z,71.30
2018-09-21T11:15:53.448Z,70.60
2018-09-21T11:18:21.616Z,69.70
2018-09-21T11:20:49.723Z,68.40
2018-09-21T11:23:17.861Z,68.20
2018-09-21T11:25:45.966Z,68.40
2018-09-21T11:28:14.087Z,68.50
2018-09-21T11:30:42.226Z,68.00
2018-09-21T11:33:10.467Z,68.20
2018-09-21T11:35:38.578Z,67.40
2018-09-21T11:38:06.698Z,67.40
2018-09-21T11:40:34.822Z,67.70
2018-09-21T11:43:02.971Z,65.60
2018-09-21T11:45:31.045Z,65.20
2018-09-21T11:47:59.199Z,64.50
2018-09-21T11:50:27.378Z,64.50
2018-09-21T11:52:55.505Z,65.30
2018-09-21T11:55:23.619Z,64.20
2018-09-21T11:57:51.747Z,63.50
2018-09-21T12:00:19.874Z,62.50
2018-09-21T12:02:48.005Z,62.60
2018-09-21T12:05:16.122Z,61.60
2018-09-21T12:07:44.283Z,61.20
2018-09-21T12:10:12.518Z,61.60
2018-09-21T12:12:40.627Z,59.60
2018-09-21T12:15:08.750Z,58.50
2018-09-21T12:17:36.863Z,58.60
2018-09-21T12:20:05.262Z,59.00
2018-09-21T12:22:33.446Z,59.20
2018-09-21T12:25:01.534Z,59.00
2018-09-21T12:27:29.707Z,58.60
2018-09-21T12:29:57.830Z,58.30
2018-09-21T12:32:25.970Z,58.10
2018-09-21T12:34:54.096Z,58.70
2018-09-21T12:37:22.273Z,57.60
2018-09-21T12:39:50.412Z,57.60
2018-09-21T12:42:18.502Z,58.30
2018-09-21T12:44:46.734Z,58.10
2018-09-21T12:47:14.814Z,58.00
2018-09-21T12:49:42.963Z,58.10
2018-09-21T12:52:11.091Z,58.60
2018-09-21T12:54:39.238Z,58.10
2018-09-21T12:57:07.500Z,57.00
2018-09-21T12:59:35.566Z,54.20
2018-09-21T13:02:03.675Z,53.00
2018-09-21T13:04:31.795Z,51.20
2018-09-21T13:06:59.948Z,50.60
2018-09-21T13:09:28.074Z,49.90
2018-09-21T13:11:56.203Z,49.90
2018-09-21T13:14:24.670Z,50.20
2018-09-21T13:16:52.879Z,50.30
2018-09-21T13:19:20.984Z,50.90
2018-09-21T13:21:49.131Z,51.30
2018-09-21T13:24:17.255Z,51.50
2018-09-21T13:26:45.435Z,51.80
2018-09-21T13:29:13.849Z,52.20
2018-09-21T13:31:42.048Z,52.10
2018-09-21T13:34:10.209Z,52.00
2018-09-21T13:36:38.327Z,51.90
2018-09-21T13:39:08.781Z,51.60
2018-09-21T13:41:36.927Z,52.00
2018-09-21T13:44:05.083Z,52.00
2018-09-21T13:46:33.192Z,52.20
2018-09-21T13:49:01.315Z,51.70
2018-09-21T13:51:29.425Z,51.10
2018-09-21T13:53:57.950Z,50.70
2018-09-21T13:56:26.610Z,50.20
2018-09-21T13:58:54.730Z,50.70
2018-09-21T14:01:22.885Z,50.80
2018-09-21T14:03:51.038Z,51.10
2018-09-21T14:06:19.185Z,51.20
2018-09-21T14:08:47.290Z,51.50
2018-09-21T14:11:15.428Z,52.00
2018-09-21T14:13:43.563Z,52.30
2018-09-21T14:16:11.776Z,52.60
2018-09-21T14:18:39.871Z,53.00
2018-09-21T14:21:08.013Z,53.30
2018-09-21T14:23:36.918Z,53.60
2018-09-21T14:26:06.305Z,53.80
2018-09-21T14:28:35.356Z,53.20
2018-09-21T14:31:03.550Z,52.70
2018-09-21T14:33:32.373Z,52.80
2018-09-21T14:36:01.287Z,52.00
2018-09-21T14:38:30.251Z,51.80
2018-09-21T14:40:59.147Z,49.80
2018-09-21T14:43:27.936Z,49.00
2018-09-21T14:45:57.045Z,48.70
2018-09-21T14:48:25.798Z,48.10
2018-09-21T14:50:54.906Z,47.90
2018-09-21T14:53:24.015Z,47.20
2018-09-21T14:55:52.940Z,46.50
2018-09-21T14:58:22.128Z,46.60
2018-09-21T15:00:50.264Z,46.30
2018-09-21T15:03:18.490Z,46.10
2018-09-21T15:05:46.614Z,46.00
2018-09-21T15:08:14.813Z,46.30
2018-09-21T15:10:42.879Z,46.50
2018-09-21T15:13:11.018Z,46.30
2018-09-21T15:15:39.122Z,46.50
2018-09-21T15:18:07.226Z,45.80
2018-09-21T15:20:35.351Z,45.70
2018-09-21T15:23:03.651Z,46.50
2018-09-21T15:25:31.802Z,46.30
2018-09-21T15:28:00.023Z,46.60
2018-09-21T15:30:28.170Z,46.00
2018-09-21T15:32:56.678Z,45.40
2018-09-21T15:35:24.866Z,45.60
2018-09-21T15:37:53.015Z,45.50
2018-09-21T15:40:21.336Z,44.60
2018-09-21T15:42:49.449Z,44.20
2018-09-21T15:45:17.573Z,43.10
2018-09-21T15:47:45.810Z,41.10
2018-09-21T15:50:13.919Z,41.30
2018-09-21T15:52:42.066Z,40.50
2018-09-21T15:55:10.177Z,41.40
2018-09-21T15:57:38.294Z,41.10
2018-09-21T16:00:07.502Z,40.90
2018-09-21T16:02:35.615Z,40.10
2018-09-21T16:05:03.780Z,40.30
2018-09-21T16:07:31.924Z,40.60
2018-09-21T16:10:00.886Z,40.90
2018-09-21T16:12:30.102Z,40.60
2018-09-21T16:14:58.198Z,40.80
2018-09-21T16:17:26.362Z,41.00
2018-09-21T16:19:54.458Z,41.20
2018-09-21T16:22:22.595Z,41.20
2018-09-21T16:24:50.721Z,41.50
2018-09-21T16:27:18.859Z,41.50
2018-09-21T16:29:46.974Z,41.90
2018-09-21T16:32:15.124Z,42.10
2018-09-21T16:34:43.491Z,42.40
2018-09-21T16:37:11.667Z,42.40
2018-09-21T16:39:39.787Z,42.50
2018-09-21T16:42:08.093Z,42.50
2018-09-21T16:44:36.270Z,42.80
2018-09-21T16:47:04.330Z,42.90
2018-09-21T16:49:32.446Z,43.00
2018-09-21T16:52:00.575Z,43.10
2018-09-21T16:54:28.695Z,43.30
2018-09-21T16:56:56.793Z,43.10
2018-09-21T16:59:25.113Z,43.20
2018-09-21T17:01:53.261Z,42.80
2018-09-21T17:04:21.417Z,42.90
2018-09-21T17:06:50.145Z,43.10
2018-09-21T17:09:18.277Z,42.40
2018-09-21T17:11:46.590Z,43.80
2018-09-21T17:14:14.722Z,43.00
2018-09-21T17:16:43.046Z,43.20
2018-09-21T17:19:11.234Z,43.50
2018-09-21T17:21:39.353Z,43.50
2018-09-21T17:24:07.527Z,43.80
2018-09-21T17:26:35.643Z,43.90
2018-09-21T17:29:03.815Z,44.20
2018-09-21T17:31:31.964Z,44.50
2018-09-21T17:34:00.063Z,44.90
2018-09-21T17:36:28.196Z,45.30
2018-09-21T17:38:56.358Z,45.80
2018-09-21T17:41:24.917Z,46.30
2018-09-21T17:43:53.130Z,46.70
2018-09-21T17:46:21.295Z,46.80
2018-09-21T17:48:49.459Z,47.30
2018-09-21T17:51:17.587Z,47.50
2018-09-21T17:53:45.746Z,47.80
2018-09-21T17:56:13.905Z,48.20
2018-09-21T17:58:42.025Z,48.60
2018-09-21T18:01:10.118Z,48.70
2018-09-21T18:03:38.238Z,48.90
2018-09-21T18:06:06.389Z,49.40
2018-09-21T18:08:34.509Z,49.60
2018-09-21T18:11:02.609Z,49.80
2018-09-21T18:13:30.833Z,49.90
2018-09-21T18:15:58.978Z,50.20
2018-09-21T18:18:27.030Z,50.40
2018-09-21T18:20:55.168Z,50.30
2018-09-21T18:23:23.278Z,50.20
2018-09-21T18:25:51.483Z,50.40
2018-09-21T18:28:19.498Z,50.60
2018-09-21T18:30:47.615Z,50.70
2018-09-21T18:33:15.742Z,50.90
2018-09-21T18:35:43.922Z,50.70
2018-09-21T18:38:12.033Z,51.10
2018-09-21T18:40:40.159Z,51.00
2018-09-21T18:43:08.277Z,51.00
2018-09-21T18:45:36.450Z,51.00
2018-09-21T18:48:04.630Z,51.20
2018-09-21T18:50:32.783Z,51.40
2018-09-21T18:53:01.057Z,51.20
2018-09-21T18:55:29.158Z,51.30
2018-09-21T18:57:57.388Z,51.30
2018-09-21T19:00:25.550Z,50.10
2018-09-21T19:02:53.686Z,50.00
2018-09-21T19:05:21.795Z,49.60
2018-09-21T19:07:49.913Z,49.20
2018-09-21T19:10:18.078Z,49.20
2018-09-21T19:12:46.262Z,49.30
2018-09-21T19:15:14.425Z,49.30
2018-09-21T19:17:42.534Z,49.50
2018-09-21T19:20:10.899Z,49.80
2018-09-21T19:22:38.986Z,49.80
2018-09-21T19:25:08.014Z,49.90
2018-09-21T19:27:36.107Z,49.90
2018-09-21T19:30:04.470Z,50.00
2018-09-21T19:32:32.558Z,50.20
2018-09-21T19:35:00.749Z,50.40
2018-09-21T19:37:28.876Z,50.40
2018-09-21T19:39:56.990Z,50.40
2018-09-21T19:42:25.108Z,50.70
2018-09-21T19:44:53.274Z,50.70
2018-09-21T19:47:21.320Z,50.70
2018-09-21T19:49:49.442Z,50.60
2018-09-21T19:52:17.557Z,50.80
2018-09-21T19:54:45.771Z,50.80
2018-09-21T19:57:13.842Z,51.10
2018-09-21T19:59:41.969Z,51.20
2018-09-21T20:02:10.192Z,51.50
2018-09-21T20:04:38.315Z,51.50
2018-09-21T20:07:06.422Z,51.90
2018-09-21T20:09:34.550Z,52.10
2018-09-21T20:12:02.663Z,52.40
2018-09-21T20:14:30.778Z,52.50
2018-09-21T20:16:58.886Z,52.70
2018-09-21T20:19:27.045Z,52.90
2018-09-21T20:21:55.333Z,53.00
2018-09-21T20:24:23.446Z,53.10
2018-09-21T20:26:51.546Z,53.10
2018-09-21T20:29:19.682Z,53.10
2018-09-21T20:31:53.312Z,53.10
2018-09-21T20:34:21.482Z,53.20
2018-09-21T20:36:49.579Z,53.30
2018-09-21T20:39:17.795Z,53.40
2018-09-21T20:41:45.898Z,53.50
2018-09-21T20:44:14.035Z,53.60
2018-09-21T20:46:42.149Z,53.70
2018-09-21T20:49:10.277Z,53.90
2018-09-21T20:51:38.418Z,53.90
2018-09-21T20:54:06.737Z,53.90
2018-09-21T20:56:34.899Z,54.00
2018-09-21T20:59:03.011Z,54.00
2018-09-21T21:01:31.123Z,54.40
2018-09-21T21:03:59.278Z,54.10
2018-09-21T21:06:27.397Z,54.20
2018-09-21T21:08:55.534Z,54.30
2018-09-21T21:11:23.655Z,54.40
2018-09-21T21:13:51.766Z,54.60
2018-09-21T21:16:19.877Z,54.70
2018-09-21T21:18:48.010Z,54.80
2018-09-21T21:21:16.190Z,54.90
2018-09-21T21:23:44.317Z,54.90
2018-09-21T21:26:12.461Z,54.70
2018-09-21T21:28:40.565Z,54.80
2018-09-21T21:31:08.726Z,54.90
2018-09-21T21:33:36.842Z,55.00
2018-09-21T21:36:05.025Z,54.90
2018-09-21T21:38:33.182Z,55.00
2018-09-21T21:41:01.519Z,55.00
2018-09-21T21:43:29.623Z,55.30
2018-09-21T21:45:57.857Z,55.30
2018-09-21T21:48:26.002Z,55.40
2018-09-21T21:50:54.190Z,55.50
2018-09-21T21:53:22.476Z,55.50
2018-09-21T21:55:50.775Z,55.50
2018-09-21T21:58:18.892Z,55.50
2018-09-21T22:00:52.334Z,55.60
2018-09-21T22:03:20.448Z,55.70
2018-09-21T22:05:48.579Z,56.60
2018-09-21T22:08:16.713Z,56.00
2018-09-21T22:10:44.830Z,56.10
2018-09-21T22:13:18.390Z,56.20
2018-09-21T22:15:46.553Z,56.30
2018-09-21T22:18:14.678Z,56.40
2018-09-21T22:20:42.801Z,56.50
2018-09-21T22:23:10.938Z,56.80
2018-09-21T22:25:39.092Z,56.90
2018-09-21T22:28:07.197Z,56.90
2018-09-21T22:30:35.316Z,57.00
2018-09-21T22:33:03.413Z,57.10
2018-09-21T22:35:31.547Z,57.30
2018-09-21T22:37:59.662Z,57.50
2018-09-21T22:40:27.863Z,57.50
2018-09-21T22:42:55.979Z,57.60
2018-09-21T22:45:24.073Z,57.70
2018-09-21T22:47:52.190Z,57.70
2018-09-21T22:50:20.313Z,57.80
2018-09-21T22:52:48.398Z,57.90
2018-09-21T22:55:16.502Z,58.10
2018-09-21T22:57:44.640Z,58.10
2018-09-21T23:00:12.754Z,58.20
2018-09-21T23:02:40.858Z,58.40
2018-09-21T23:05:08.977Z,58.50
2018-09-21T23:07:37.118Z,58.50
2018-09-21T23:10:05.254Z,58.60
2018-09-21T23:12:33.344Z,58.70
2018-09-21T23:15:01.468Z,58.80
2018-09-21T23:17:29.574Z,59.20
2018-09-21T23:19:57.687Z,59.30
2018-09-21T23:22:25.834Z,59.60
2018-09-21T23:24:53.975Z,59.70
2018-09-21T23:27:22.065Z,60.00
2018-09-21T23:29:50.185Z,60.30
2018-09-21T23:32:18.344Z,60.30
2018-09-21T23:34:46.865Z,60.50
2018-09-21T23:37:14.999Z,60.70
2018-09-21T23:39:43.082Z,61.00
2018-09-21T23:42:11.196Z,61.10
2018-09-21T23:44:39.298Z,61.30
2018-09-21T23:47:07.421Z,61.50
2018-09-21T23:49:35.581Z,61.40
2018-09-21T23:52:03.738Z,61.70
2018-09-21T23:54:31.841Z,62.00
2018-09-21T23:56:59.970Z,62.30
2018-09-21T23:59:28.085Z,62.40
